Time;durP1;ratioP1;P1;durP2;ratioP2;P2;SDS_P1;SDS_P2;PMS_P1;PMS_P2;Temp;Humidity;BMP_temperature;BMP_pressure;BME280_temperature;BME280_humidity;BME280_pressure;Samples;Min_cycle;Max_cycle;Signal;HPM_P1;HPM_P2
2021/03/30 00:02:39;;;;;;;72.07;37.20;;;8.20;99.90;;;;;;4401743;28;657885;-83
2021/03/30 00:05:26;;;;;;;71.83;35.47;;;8.30;99.90;;;;;;4409771;28;657512;-83
2021/03/30 00:08:14;;;;;;;78.17;36.87;;;8.30;99.90;;;;;;4402612;28;657586;-83
2021/03/30 00:11:01;;;;;;;77.47;38.57;;;8.30;99.90;;;;;;4412519;28;658535;-83
2021/03/30 00:13:48;;;;;;;83.87;38.30;;;8.30;99.90;;;;;;4400591;28;657799;-83
2021/03/30 00:16:36;;;;;;;82.53;37.47;;;8.30;99.90;;;;;;4406158;28;658488;-83
2021/03/30 00:19:23;;;;;;;82.53;37.97;;;8.30;99.90;;;;;;4398903;28;657893;-83
2021/03/30 00:22:10;;;;;;;83.93;39.47;;;8.30;99.90;;;;;;4408024;28;658460;-83
2021/03/30 00:24:57;;;;;;;94.17;39.80;;;8.20;99.90;;;;;;4403872;28;657745;-83
2021/03/30 00:27:44;;;;;;;99.00;38.58;;;8.20;99.90;;;;;;4397905;28;658043;-84
2021/03/30 00:30:31;;;;;;;90.07;38.13;;;8.20;99.90;;;;;;4400457;28;657229;-83
2021/03/30 00:33:20;;;;;;;86.50;37.17;;;8.20;99.90;;;;;;4397711;28;657640;-83
2021/03/30 00:36:07;;;;;;;85.10;37.00;;;8.20;99.90;;;;;;4419490;28;657390;-83
2021/03/30 00:38:54;;;;;;;103.07;35.63;;;8.20;99.90;;;;;;4390178;28;658441;-83
2021/03/30 00:41:41;;;;;;;111.57;38.03;;;8.30;99.90;;;;;;4415330;28;658429;-83
2021/03/30 00:44:28;;;;;;;104.27;35.80;;;8.30;99.90;;;;;;4397520;28;658451;-83
2021/03/30 00:47:16;;;;;;;84.60;35.33;;;8.30;99.90;;;;;;4403288;28;658840;-83
2021/03/30 00:50:05;;;;;;;90.50;37.40;;;8.30;99.90;;;;;;4394352;28;658726;-83
2021/03/30 00:52:52;;;;;;;88.90;38.97;;;8.30;99.90;;;;;;4407325;28;657602;-83
2021/03/30 00:55:39;;;;;;;90.50;39.23;;;8.30;99.90;;;;;;4419226;28;658221;-83
2021/03/30 00:58:26;;;;;;;80.27;37.80;;;8.30;99.90;;;;;;4421842;28;657920;-83
2021/03/30 01:01:14;;;;;;;76.10;34.63;;;8.30;99.90;;;;;;4380272;28;657640;-84
2021/03/30 01:04:01;;;;;;;68.73;35.00;;;8.30;99.90;;;;;;4419646;28;658130;-83
2021/03/30 01:06:49;;;;;;;73.93;34.13;;;8.30;99.90;;;;;;4394797;28;657878;-83
2021/03/30 01:09:47;;;;;;;78.53;37.03;;;8.30;99.90;;;;;;4427859;28;658691;-83
2021/03/30 01:12:41;;;;;;;76.13;34.67;;;8.40;99.90;;;;;;4407602;28;657467;-83
2021/03/30 01:15:33;;;;;;;71.73;34.77;;;8.40;99.90;;;;;;4410749;28;657619;-83
2021/03/30 01:18:23;;;;;;;73.70;33.93;;;8.40;99.90;;;;;;4396930;28;657994;-83
2021/03/30 01:21:19;;;;;;;72.23;34.23;;;8.40;99.90;;;;;;4411499;28;658631;-83
2021/03/30 01:24:10;;;;;;;72.23;35.33;;;8.50;99.90;;;;;;4410918;28;657622;-82
2021/03/30 01:27:00;;;;;;;72.43;33.43;;;8.40;99.90;;;;;;4395469;28;658212;-83
2021/03/30 01:29:49;;;;;;;74.65;36.35;;;8.50;99.90;;;;;;4391895;28;657899;-83
2021/03/30 01:32:38;;;;;;;81.07;37.03;;;8.50;99.90;;;;;;4435027;28;657411;-83
2021/03/30 01:35:25;;;;;;;71.37;36.80;;;8.50;99.90;;;;;;4400339;28;658399;-83
2021/03/30 01:38:13;;;;;;;75.47;36.27;;;8.50;99.90;;;;;;4398288;28;657522;-83
2021/03/30 01:41:00;;;;;;;68.93;34.30;;;8.50;99.90;;;;;;4429841;28;658750;-83
2021/03/30 01:43:47;;;;;;;67.70;32.33;;;8.50;99.90;;;;;;4410888;28;657645;-83
2021/03/30 01:46:35;;;;;;;70.85;32.90;;;8.50;99.90;;;;;;4427756;28;657487;-83
2021/03/30 01:49:23;;;;;;;60.72;31.45;;;8.50;99.90;;;;;;4404280;28;658077;-83
2021/03/30 01:52:10;;;;;;;74.13;32.60;;;8.50;99.90;;;;;;4426606;28;658879;-83
2021/03/30 01:54:57;;;;;;;65.83;31.83;;;8.50;99.90;;;;;;4408681;28;657768;-83
2021/03/30 01:57:46;;;;;;;61.77;31.30;;;8.60;99.90;;;;;;4420505;28;658004;-83
2021/03/30 02:00:34;;;;;;;63.43;31.47;;;8.50;99.90;;;;;;4404524;28;658127;-83
2021/03/30 02:03:22;;;;;;;68.33;34.57;;;8.60;99.90;;;;;;4434174;28;657729;-83
2021/03/30 02:06:11;;;;;;;69.70;31.93;;;8.60;99.90;;;;;;4385784;28;658141;-83
2021/03/30 02:09:02;;;;;;;59.87;31.30;;;8.60;99.90;;;;;;4390107;28;657289;-83
2021/03/30 02:11:53;;;;;;;62.93;33.20;;;8.60;99.90;;;;;;4402198;28;657835;-83
2021/03/30 02:14:40;;;;;;;61.97;31.27;;;8.70;99.90;;;;;;4408854;28;657833;-83
2021/03/30 02:17:29;;;;;;;58.93;31.17;;;8.70;99.90;;;;;;4427224;28;657245;-83
2021/03/30 02:20:19;;;;;;;60.20;31.03;;;8.70;99.90;;;;;;4427571;28;657229;-83
2021/03/30 02:23:08;;;;;;;69.10;33.13;;;8.70;99.90;;;;;;4407225;28;657190;-83
2021/03/30 02:25:56;;;;;;;64.77;31.80;;;8.70;99.90;;;;;;4403653;28;657901;-83
2021/03/30 02:28:45;;;;;;;68.33;32.57;;;8.70;99.90;;;;;;4416115;28;657822;-84
2021/03/30 02:31:32;;;;;;;71.57;34.10;;;8.70;99.90;;;;;;4398401;28;658194;-83
2021/03/30 02:34:21;;;;;;;64.33;31.33;;;8.80;99.90;;;;;;4416572;28;657779;-84
2021/03/30 02:37:09;;;;;;;69.60;30.40;;;8.80;99.90;;;;;;4410302;28;657921;-83
2021/03/30 02:39:56;;;;;;;62.27;31.07;;;8.70;99.90;;;;;;4429693;28;657545;-83
2021/03/30 02:42:44;;;;;;;64.90;35.00;;;8.80;99.90;;;;;;4408822;28;657924;-83
2021/03/30 02:45:31;;;;;;;65.63;33.33;;;8.80;99.90;;;;;;4428243;28;657378;-83
2021/03/30 02:48:18;;;;;;;58.67;26.77;;;8.80;99.90;;;;;;4398279;28;657444;-84
2021/03/30 02:51:06;;;;;;;56.87;30.87;;;8.80;99.90;;;;;;4424407;28;658094;-83
2021/03/30 02:53:54;;;;;;;60.90;29.73;;;8.80;99.90;;;;;;4404084;28;657621;-83
2021/03/30 02:56:41;;;;;;;57.47;30.57;;;8.80;99.90;;;;;;4423661;28;657072;-83
2021/03/30 02:59:29;;;;;;;62.73;31.97;;;8.80;99.90;;;;;;4398894;28;657350;-83
2021/03/30 03:02:16;;;;;;;54.93;29.57;;;8.80;99.90;;;;;;4427651;28;657678;-83
2021/03/30 03:05:03;;;;;;;52.63;29.00;;;8.80;99.90;;;;;;4404492;28;657513;-84
2021/03/30 03:07:50;;;;;;;64.77;32.43;;;8.80;99.90;;;;;;4415937;28;658399;-83
2021/03/30 03:10:38;;;;;;;67.03;32.47;;;8.90;99.90;;;;;;4396095;28;657907;-83
2021/03/30 03:13:26;;;;;;;66.27;32.07;;;8.90;99.90;;;;;;4403069;28;657735;-83
2021/03/30 03:16:13;;;;;;;65.87;33.93;;;8.90;99.90;;;;;;4391982;28;658495;-84
2021/03/30 03:19:00;;;;;;;67.13;32.93;;;8.90;99.90;;;;;;4416364;28;658342;-83
2021/03/30 03:21:50;;;;;;;58.73;32.17;;;8.80;99.90;;;;;;4384151;28;659139;-83
2021/03/30 03:24:37;;;;;;;61.83;32.37;;;8.90;99.90;;;;;;4396192;28;657538;-83
2021/03/30 03:27:26;;;;;;;58.97;32.20;;;8.90;99.90;;;;;;4402369;28;657126;-83
2021/03/30 03:30:14;;;;;;;62.87;33.13;;;8.90;99.90;;;;;;4397640;28;657377;-83
2021/03/30 03:33:05;;;;;;;62.85;33.22;;;8.90;99.90;;;;;;4422656;28;657301;-83
2021/03/30 03:36:06;;;;;;;65.33;33.40;;;8.80;99.90;;;;;;4371685;28;657656;-84
2021/03/30 03:38:53;;;;;;;64.73;32.73;;;8.80;99.90;;;;;;4390714;28;658193;-83
2021/03/30 03:41:41;;;;;;;63.03;32.93;;;8.80;99.90;;;;;;4401862;28;657625;-83
2021/03/30 03:44:29;;;;;;;60.67;33.80;;;8.80;99.90;;;;;;4396314;28;657335;-82
2021/03/30 03:47:21;;;;;;;68.20;36.50;;;8.80;99.90;;;;;;4405740;28;657986;-83
2021/03/30 03:50:09;;;;;;;71.37;35.97;;;8.80;99.90;;;;;;4386131;28;657976;-83
2021/03/30 03:52:57;;;;;;;75.72;33.88;;;8.80;99.90;;;;;;4396664;28;657371;-83
2021/03/30 03:55:48;;;;;;;75.47;36.63;;;8.90;99.90;;;;;;4375375;28;658283;-83
2021/03/30 03:58:37;;;;;;;58.77;32.20;;;8.90;99.90;;;;;;4394862;28;657692;-83
2021/03/30 04:01:30;;;;;;;84.07;39.23;;;8.80;99.90;;;;;;4381696;28;657972;-83
2021/03/30 04:04:23;;;;;;;75.93;39.03;;;8.80;99.90;;;;;;4415632;28;657890;-83
2021/03/30 04:07:16;;;;;;;72.37;37.80;;;8.80;99.90;;;;;;4393923;28;657826;-83
2021/03/30 04:10:04;;;;;;;67.23;33.67;;;8.80;99.90;;;;;;4391552;28;657676;-83
2021/03/30 04:12:52;;;;;;;77.73;37.00;;;8.80;99.90;;;;;;4419422;28;657779;-83
2021/03/30 04:15:39;;;;;;;81.47;39.50;;;8.80;99.90;;;;;;4376734;28;658087;-83
2021/03/30 04:18:27;;;;;;;80.73;40.77;;;8.80;99.90;;;;;;4407432;28;657540;-83
2021/03/30 04:21:17;;;;;;;70.10;36.47;;;8.80;99.90;;;;;;4389973;28;657756;-83
2021/03/30 04:24:04;;;;;;;70.00;36.97;;;8.80;99.90;;;;;;4394647;28;657757;-84
2021/03/30 04:26:52;;;;;;;223.43;59.17;;;8.80;99.90;;;;;;4411630;28;657314;-83
2021/03/30 04:29:39;;;;;;;113.23;44.40;;;8.80;99.90;;;;;;4387185;28;658977;-83
2021/03/30 04:32:26;;;;;;;89.67;40.47;;;8.80;99.90;;;;;;4413634;28;658728;-84
2021/03/30 04:35:14;;;;;;;138.60;42.17;;;8.80;99.90;;;;;;4398255;28;657559;-84
2021/03/30 04:38:01;;;;;;;108.40;41.83;;;8.90;99.90;;;;;;4407760;28;658779;-83
2021/03/30 04:40:52;;;;;;;70.10;35.27;;;8.90;99.90;;;;;;4391718;28;658876;-83
2021/03/30 04:43:39;;;;;;;77.90;37.03;;;8.80;99.90;;;;;;4392488;28;657823;-83
2021/03/30 04:46:29;;;;;;;78.70;33.72;;;8.80;99.90;;;;;;4420501;28;657263;-84
2021/03/30 04:49:16;;;;;;;58.42;30.67;;;8.90;99.90;;;;;;4381709;28;657703;-83
2021/03/30 04:52:05;;;;;;;62.33;31.10;;;8.90;99.90;;;;;;4395612;28;657433;-83
2021/03/30 04:54:52;;;;;;;59.93;31.87;;;8.90;99.90;;;;;;4396478;28;657953;-84
2021/03/30 04:57:39;;;;;;;73.13;32.80;;;8.90;99.90;;;;;;4416475;28;657382;-83
2021/03/30 05:00:26;;;;;;;61.70;33.47;;;9.00;99.90;;;;;;4412306;28;657475;-84
2021/03/30 05:03:13;;;;;;;76.47;35.73;;;9.00;99.90;;;;;;4376355;28;657574;-84
2021/03/30 05:06:00;;;;;;;131.13;34.20;;;9.00;99.90;;;;;;4406543;28;658792;-84
2021/03/30 05:08:48;;;;;;;63.73;33.10;;;9.00;99.90;;;;;;4405950;28;658681;-84
2021/03/30 05:11:35;;;;;;;74.20;35.33;;;9.00;99.90;;;;;;4432288;28;658215;-83
2021/03/30 05:14:22;;;;;;;102.60;45.07;;;9.00;99.90;;;;;;4407951;28;657504;-83
2021/03/30 05:17:09;;;;;;;64.70;33.90;;;9.10;99.90;;;;;;4417035;28;658344;-83
2021/03/30 05:19:56;;;;;;;65.07;34.33;;;9.10;99.90;;;;;;4426377;28;657304;-83
2021/03/30 05:22:43;;;;;;;60.20;30.70;;;9.20;99.90;;;;;;4406555;28;657526;-83
2021/03/30 05:25:31;;;;;;;59.50;30.60;;;9.20;99.90;;;;;;4427342;28;658126;-83
2021/03/30 05:28:18;;;;;;;58.37;31.23;;;9.20;99.90;;;;;;4404750;28;658037;-83
2021/03/30 05:31:09;;;;;;;60.27;31.80;;;9.20;99.90;;;;;;4432874;28;658308;-83
2021/03/30 05:33:56;;;;;;;50.90;31.40;;;9.30;99.90;;;;;;4397841;28;658395;-83
2021/03/30 05:36:43;;;;;;;49.87;30.13;;;9.30;99.90;;;;;;4413928;28;657538;-83
2021/03/30 05:39:30;;;;;;;50.90;28.47;;;9.40;99.90;;;;;;4413632;28;658180;-84
2021/03/30 05:42:19;;;;;;;53.00;29.97;;;9.40;99.90;;;;;;4412730;28;657603;-84
2021/03/30 05:45:07;;;;;;;52.87;30.23;;;9.40;99.90;;;;;;4426998;28;657730;-83
2021/03/30 05:47:54;;;;;;;56.78;31.77;;;9.40;99.90;;;;;;4413342;28;658080;-83
2021/03/30 05:50:42;;;;;;;51.83;29.97;;;9.50;99.90;;;;;;4435863;28;657864;-82
2021/03/30 05:53:29;;;;;;;55.63;29.17;;;9.50;99.90;;;;;;4398567;28;657939;-83
2021/03/30 05:56:19;;;;;;;62.13;32.43;;;9.50;99.90;;;;;;4435573;28;657527;-82
2021/03/30 05:59:07;;;;;;;58.13;31.73;;;9.60;99.90;;;;;;4410216;28;657286;-83
2021/03/30 06:01:55;;;;;;;60.83;32.93;;;9.60;99.90;;;;;;4397457;28;657620;-83
2021/03/30 06:04:45;;;;;;;60.30;32.83;;;9.50;99.90;;;;;;4424146;28;657665;-83
2021/03/30 06:07:32;;;;;;;64.30;32.87;;;9.50;99.90;;;;;;4398026;28;657430;-84
2021/03/30 06:10:20;;;;;;;63.73;30.80;;;9.50;99.90;;;;;;4364549;28;657985;-83
2021/03/30 06:13:08;;;;;;;60.03;32.93;;;9.50;99.90;;;;;;4407032;28;658232;-84
2021/03/30 06:15:56;;;;;;;54.40;30.73;;;9.50;99.90;;;;;;4416835;28;657899;-83
2021/03/30 06:18:43;;;;;;;68.90;35.67;;;9.50;99.90;;;;;;4398129;28;657978;-83
2021/03/30 06:21:30;;;;;;;70.70;36.83;;;9.50;99.90;;;;;;4413511;28;658235;-83
2021/03/30 06:24:27;;;;;;;68.13;36.13;;;9.60;99.90;;;;;;4390211;28;658076;-84
2021/03/30 06:27:25;;;;;;;69.57;37.40;;;9.70;99.90;;;;;;4378492;28;657647;-84
2021/03/30 06:30:14;;;;;;;63.53;37.17;;;9.80;99.90;;;;;;4366705;28;657753;-85
2021/03/30 06:33:02;;;;;;;65.97;35.63;;;10.00;99.90;;;;;;4409032;28;657826;-84
2021/03/30 06:35:49;;;;;;;66.67;34.23;;;10.00;99.90;;;;;;4395799;28;659318;-84
2021/03/30 06:38:47;;;;;;;68.83;35.23;;;10.00;99.90;;;;;;4416602;28;657637;-84
2021/03/30 06:41:40;;;;;;;58.57;31.63;;;10.00;99.90;;;;;;4377734;28;658702;-85
2021/03/30 06:44:33;;;;;;;60.43;32.87;;;9.90;99.90;;;;;;4384490;28;658764;-85
2021/03/30 06:47:22;;;;;;;58.87;32.27;;;9.90;99.90;;;;;;4378530;28;658005;-84
2021/03/30 06:50:19;;;;;;;61.60;33.33;;;9.80;99.90;;;;;;4386830;28;658832;-84
2021/03/30 06:53:10;;;;;;;63.93;33.23;;;9.80;99.90;;;;;;4380291;28;657985;-84
2021/03/30 06:55:57;;;;;;;58.27;32.63;;;9.80;99.90;;;;;;4382538;28;657631;-84
2021/03/30 06:58:58;;;;;;;57.60;33.47;;;9.80;99.90;;;;;;4412243;28;657541;-85
2021/03/30 07:01:46;;;;;;;63.90;33.27;;;9.90;99.90;;;;;;4395961;28;657982;-84
2021/03/30 07:04:34;;;;;;;65.47;34.93;;;9.80;99.90;;;;;;4397470;28;658517;-85
2021/03/30 07:07:22;;;;;;;67.53;36.80;;;9.80;99.90;;;;;;4401126;28;658079;-85
2021/03/30 07:10:10;;;;;;;57.40;34.83;;;9.90;99.90;;;;;;4381068;28;658010;-85
2021/03/30 07:12:57;;;;;;;62.67;34.07;;;10.00;99.90;;;;;;4394223;28;657703;-85
2021/03/30 07:15:44;;;;;;;67.40;35.25;;;10.10;99.90;;;;;;4406304;28;658445;-84
2021/03/30 07:18:41;;;;;;;61.78;34.08;;;10.20;99.90;;;;;;4412787;28;658632;-85
2021/03/30 07:21:32;;;;;;;56.90;33.03;;;10.40;99.90;;;;;;4353689;28;659144;-86
2021/03/30 07:24:23;;;;;;;61.03;32.63;;;10.50;99.90;;;;;;4392935;28;659406;-86
2021/03/30 07:27:14;;;;;;;58.37;31.13;;;10.70;99.90;;;;;;4356303;28;659167;-85
2021/03/30 07:30:01;;;;;;;54.57;30.37;;;10.90;99.90;;;;;;4369885;28;658934;-86
2021/03/30 07:32:55;;;;;;;60.60;31.57;;;10.80;99.90;;;;;;4386180;28;658691;-86
2021/03/30 07:35:42;;;;;;;51.10;28.43;;;11.10;99.90;;;;;;4387284;28;658500;-85
2021/03/30 07:38:33;;;;;;;54.43;30.53;;;11.30;99.90;;;;;;4403268;28;659724;-85
2021/03/30 07:41:21;;;;;;;58.83;29.40;;;11.50;99.90;;;;;;4375976;28;659581;-86
2021/03/30 07:44:09;;;;;;;48.90;27.50;;;11.60;99.90;;;;;;4389420;28;658769;-84
2021/03/30 07:46:56;;;;;;;51.73;29.07;;;11.80;99.90;;;;;;4399822;28;658292;-85
2021/03/30 07:49:44;;;;;;;49.83;27.57;;;11.80;99.90;;;;;;4383300;28;658447;-85
2021/03/30 07:52:41;;;;;;;50.67;27.03;;;11.90;99.90;;;;;;4414698;28;658506;-84
2021/03/30 07:55:28;;;;;;;49.37;27.03;;;11.90;99.90;;;;;;4366829;28;658940;-84
2021/03/30 07:58:18;;;;;;;51.37;27.70;;;12.10;99.90;;;;;;4404490;28;659186;-84
2021/03/30 08:01:05;;;;;;;53.83;29.53;;;12.20;99.90;;;;;;4377472;28;658867;-85
2021/03/30 08:03:54;;;;;;;50.27;30.27;;;12.30;99.90;;;;;;4383447;28;658838;-86
2021/03/30 08:06:48;;;;;;;49.07;29.03;;;12.40;99.90;;;;;;4418522;28;658786;-85
2021/03/30 08:09:35;;;;;;;50.60;29.43;;;12.40;99.90;;;;;;4402303;28;659103;-85
2021/03/30 08:12:24;;;;;;;52.90;27.20;;;12.40;99.90;;;;;;4395743;28;658562;-85
2021/03/30 08:15:33;;;;;;;52.17;28.60;;;12.40;99.90;;;;;;4404540;28;658698;-85
2021/03/30 08:18:39;;;;;;;53.50;30.10;;;12.50;99.90;;;;;;4306947;28;658550;-85
2021/03/30 08:21:26;;;;;;;58.80;30.03;;;12.60;99.90;;;;;;4311033;28;658193;-84
2021/03/30 08:24:13;;;;;;;49.07;29.60;;;12.70;99.90;;;;;;4318450;28;659191;-85
2021/03/30 08:27:01;;;;;;;54.43;29.03;;;12.70;99.90;;;;;;4340063;28;659562;-87
2021/03/30 08:29:48;;;;;;;49.53;27.77;;;12.80;99.90;;;;;;4316193;28;658749;-86
2021/03/30 08:32:35;;;;;;;55.20;28.00;;;12.80;99.90;;;;;;4306477;28;658771;-87
2021/03/30 08:35:44;;;;;;;51.70;27.53;;;12.80;99.90;;;;;;4291609;28;658653;-88
2021/03/30 08:38:44;;;;;;;53.83;27.83;;;12.80;99.90;;;;;;4307287;28;658353;-87
2021/03/30 08:41:51;;;;;;;51.53;26.50;;;12.70;99.90;;;;;;4309229;28;658498;-85
2021/03/30 08:44:43;;;;;;;54.90;26.77;;;12.70;99.90;;;;;;4288449;28;658717;-87
2021/03/30 08:47:38;;;;;;;53.73;27.73;;;12.70;99.90;;;;;;4308763;28;658491;-84
2021/03/30 08:50:27;;;;;;;56.97;28.50;;;12.70;99.90;;;;;;4307496;28;658678;-86
2021/03/30 08:53:19;;;;;;;46.53;25.60;;;13.00;99.90;;;;;;4307740;28;659226;-85
2021/03/30 08:56:10;;;;;;;51.00;27.40;;;13.20;99.90;;;;;;4314094;28;658558;-85
2021/03/30 08:58:57;;;;;;;48.30;26.20;;;13.20;99.90;;;;;;4377476;28;658595;-85
2021/03/30 09:01:44;;;;;;;49.80;27.47;;;13.30;99.90;;;;;;4426065;28;658819;-85
2021/03/30 09:04:35;;;;;;;46.33;25.60;;;13.50;99.90;;;;;;4432076;28;658513;-86
2021/03/30 09:07:22;;;;;;;47.47;25.43;;;13.60;99.90;;;;;;4430472;28;659434;-87
2021/03/30 09:10:11;;;;;;;46.53;25.33;;;13.70;99.90;;;;;;4396538;28;659153;-84
2021/03/30 09:13:12;;;;;;;47.63;25.33;;;13.70;99.90;;;;;;4398296;28;658677;-85
2021/03/30 09:16:08;;;;;;;49.03;25.20;;;13.90;99.90;;;;;;4384509;28;658513;-84
2021/03/30 09:19:29;;;;;;;52.67;25.93;;;13.90;99.90;;;;;;4380678;28;659471;-88
2021/03/30 09:22:21;;;;;;;48.37;27.17;;;14.00;99.90;;;;;;4371964;28;658518;-87
2021/03/30 09:25:22;;;;;;;49.70;26.63;;;14.00;99.90;;;;;;4399475;28;659148;-86
2021/03/30 09:28:14;;;;;;;55.80;27.30;;;14.20;99.90;;;;;;4384857;28;658569;-87
2021/03/30 09:31:01;;;;;;;53.20;26.90;;;14.20;99.90;;;;;;4396073;28;659461;-87
2021/03/30 09:33:48;;;;;;;52.87;27.77;;;14.20;99.90;;;;;;4390859;28;659044;-86
2021/03/30 09:36:44;;;;;;;55.70;28.07;;;14.00;99.90;;;;;;4414704;28;658231;-85
2021/03/30 09:39:34;;;;;;;57.47;29.40;;;14.00;99.90;;;;;;4402891;28;659551;-85
2021/03/30 09:42:21;;;;;;;54.47;30.67;;;13.90;99.90;;;;;;4396723;28;659232;-86
2021/03/30 09:45:09;;;;;;;55.17;28.97;;;13.80;99.90;;;;;;4405078;28;658867;-86
2021/03/30 09:47:56;;;;;;;56.73;30.83;;;13.90;99.90;;;;;;4412376;28;658726;-86
2021/03/30 09:50:44;;;;;;;55.47;30.47;;;13.80;99.90;;;;;;4387577;28;658483;-87
2021/03/30 09:53:40;;;;;;;62.27;31.37;;;13.90;99.90;;;;;;4425670;28;658773;-86
2021/03/30 09:56:31;;;;;;;56.40;30.03;;;14.10;99.90;;;;;;4406163;28;659173;-86
2021/03/30 09:59:19;;;;;;;55.67;30.73;;;14.10;99.90;;;;;;4382361;28;659250;-86
2021/03/30 10:02:06;;;;;;;52.97;31.03;;;14.30;99.90;;;;;;4410690;28;658653;-86
2021/03/30 10:04:53;;;;;;;77.27;37.47;;;14.30;99.90;;;;;;4393376;28;658507;-86
2021/03/30 10:07:40;;;;;;;62.63;33.43;;;14.30;99.90;;;;;;4417886;28;659313;-86
2021/03/30 10:10:41;;;;;;;61.40;32.60;;;14.40;99.90;;;;;;4392241;28;658657;-86
2021/03/30 10:13:29;;;;;;;60.27;32.80;;;14.50;99.90;;;;;;4396343;28;658493;-87
2021/03/30 10:16:19;;;;;;;67.77;33.70;;;14.40;99.90;;;;;;4417707;28;658462;-86
2021/03/30 10:19:06;;;;;;;54.43;31.10;;;14.50;99.90;;;;;;4399810;28;659409;-86
2021/03/30 10:21:55;;;;;;;57.30;30.70;;;14.60;99.90;;;;;;4392740;28;658932;-86
2021/03/30 10:24:42;;;;;;;62.93;32.17;;;14.60;99.90;;;;;;4409224;28;659166;-86
2021/03/30 10:27:29;;;;;;;64.27;32.10;;;14.60;99.90;;;;;;4431202;28;659007;-85
2021/03/30 10:30:18;;;;;;;59.43;31.37;;;14.60;99.90;;;;;;4422506;28;658530;-86
2021/03/30 10:33:07;;;;;;;56.67;28.53;;;14.70;99.90;;;;;;4410613;28;658600;-86
2021/03/30 10:35:54;;;;;;;58.40;28.70;;;14.90;99.90;;;;;;4382391;28;658962;-85
2021/03/30 10:38:41;;;;;;;58.27;27.63;;;15.00;99.90;;;;;;4406904;28;658473;-85
2021/03/30 10:41:32;;;;;;;55.43;26.80;;;15.10;99.90;;;;;;4403298;28;658589;-85
2021/03/30 10:44:20;;;;;;;58.83;28.07;;;15.10;99.90;;;;;;4407949;28;659071;-83
2021/03/30 10:47:16;;;;;;;54.63;27.43;;;15.30;99.90;;;;;;4399331;28;658844;-88
2021/03/30 10:50:05;;;;;;;56.97;28.07;;;15.50;99.90;;;;;;4389191;28;658839;-87
2021/03/30 10:52:53;;;;;;;51.03;27.57;;;15.60;99.90;;;;;;4412144;28;659144;-87
2021/03/30 10:55:41;;;;;;;55.87;28.00;;;15.90;99.90;;;;;;4414226;28;659039;-85
2021/03/30 10:58:28;;;;;;;57.63;28.33;;;16.00;99.90;;;;;;4394661;28;658434;-86
2021/03/30 11:01:15;;;;;;;56.17;26.83;;;16.10;99.90;;;;;;4421312;28;659121;-86
2021/03/30 11:04:03;;;;;;;50.23;27.13;;;16.20;99.90;;;;;;4420110;28;658373;-86
2021/03/30 11:06:50;;;;;;;54.20;27.63;;;16.40;99.90;;;;;;4427532;28;659767;-84
2021/03/30 11:09:38;;;;;;;58.57;28.77;;;16.60;99.90;;;;;;4396067;28;658900;-84
2021/03/30 11:12:25;;;;;;;61.37;29.73;;;16.60;99.90;;;;;;4407186;28;658791;-84
2021/03/30 11:15:12;;;;;;;60.80;29.83;;;16.80;99.90;;;;;;4426351;28;658097;-83
2021/03/30 11:17:59;;;;;;;57.23;28.90;;;16.80;99.90;;;;;;4384165;28;658862;-87
2021/03/30 11:20:47;;;;;;;52.03;28.03;;;16.90;99.90;;;;;;4418420;28;659575;-83
2021/03/30 11:23:37;;;;;;;59.17;29.33;;;16.90;99.90;;;;;;4393315;28;658741;-84
2021/03/30 11:26:24;;;;;;;55.07;29.10;;;16.70;99.90;;;;;;4399615;28;659010;-82
2021/03/30 11:29:16;;;;;;;70.60;31.50;;;16.60;99.90;;;;;;4425004;28;658880;-85
2021/03/30 11:32:15;;;;;;;59.40;28.98;;;16.80;99.90;;;;;;4382481;28;659228;-87
2021/03/30 11:35:04;;;;;;;54.83;27.77;;;16.90;99.90;;;;;;4404432;28;659107;-86
2021/03/30 11:37:57;;;;;;;49.77;26.33;;;16.80;99.90;;;;;;4407361;28;658645;-84
2021/03/30 11:40:44;;;;;;;55.47;27.23;;;16.80;99.90;;;;;;4394278;28;659136;-86
2021/03/30 11:43:31;;;;;;;55.80;28.27;;;16.90;99.90;;;;;;4425672;28;658919;-86
2021/03/30 11:46:18;;;;;;;53.40;27.23;;;16.80;99.90;;;;;;4402961;28;659540;-85
2021/03/30 11:49:05;;;;;;;55.40;27.10;;;17.00;99.90;;;;;;4416657;28;659047;-85
2021/03/30 11:51:52;;;;;;;60.43;28.90;;;17.30;99.90;;;;;;4403731;28;658959;-86
2021/03/30 11:54:41;;;;;;;50.10;25.10;;;17.50;99.90;;;;;;4410821;28;658510;-86
2021/03/30 11:57:28;;;;;;;49.23;25.23;;;17.50;99.90;;;;;;4399373;28;658726;-86
2021/03/30 12:00:19;;;;;;;49.73;23.83;;;17.40;99.90;;;;;;4422518;28;659081;-85
2021/03/30 12:03:06;;;;;;;50.17;25.03;;;17.50;99.90;;;;;;4395772;28;658445;-85
2021/03/30 12:05:53;;;;;;;51.23;24.03;;;17.90;99.90;;;;;;4388585;28;658560;-87
2021/03/30 12:08:40;;;;;;;54.00;24.73;;;18.40;99.90;;;;;;4417553;28;658936;-86
2021/03/30 12:11:29;;;;;;;50.27;23.83;;;18.40;99.90;;;;;;4401330;28;658681;-87
2021/03/30 12:14:16;;;;;;;48.00;24.20;;;18.40;99.90;;;;;;4414254;28;658527;-86
2021/03/30 12:17:04;;;;;;;44.13;23.70;;;18.30;99.90;;;;;;4393607;28;659184;-86
2021/03/30 12:19:51;;;;;;;45.30;22.37;;;18.60;99.90;;;;;;4403152;28;658726;-86
2021/03/30 12:22:38;;;;;;;53.20;24.10;;;18.80;99.90;;;;;;4403660;28;658759;-87
2021/03/30 12:25:25;;;;;;;46.50;22.17;;;18.90;99.90;;;;;;4416025;28;659113;-86
2021/03/30 12:28:13;;;;;;;43.87;23.43;;;18.70;99.90;;;;;;4395308;28;659347;-87
2021/03/30 12:31:00;;;;;;;47.87;23.03;;;18.50;99.90;;;;;;4412169;28;658981;-86
2021/03/30 12:33:47;;;;;;;41.30;22.10;;;18.60;99.90;;;;;;4387587;28;658740;-86
2021/03/30 12:36:34;;;;;;;40.60;20.40;;;19.00;99.90;;;;;;4425129;28;658473;-86
2021/03/30 12:39:21;;;;;;;43.60;20.10;;;19.20;99.90;;;;;;4425727;28;659341;-87
2021/03/30 12:42:08;;;;;;;43.23;18.40;;;19.00;99.90;;;;;;4411960;28;658712;-86
2021/03/30 12:44:56;;;;;;;32.73;17.47;;;19.70;99.90;;;;;;4426377;28;659345;-86
2021/03/30 12:47:43;;;;;;;36.10;18.40;;;20.30;99.90;;;;;;4398305;28;659079;-86
2021/03/30 12:50:30;;;;;;;40.53;18.57;;;20.80;99.50;;;;;;4421576;28;658985;-85
2021/03/30 12:53:17;;;;;;;38.93;17.07;;;21.00;96.40;;;;;;4397726;28;659001;-86
2021/03/30 12:56:05;;;;;;;29.87;16.27;;;21.00;98.90;;;;;;4407665;28;658679;-86
2021/03/30 12:58:52;;;;;;;35.93;16.70;;;20.80;95.70;;;;;;4399966;28;658595;-86
2021/03/30 13:01:40;;;;;;;33.67;17.47;;;20.50;96.00;;;;;;4414488;28;659341;-86
2021/03/30 13:04:27;;;;;;;30.20;16.53;;;20.30;95.20;;;;;;4400905;28;658605;-87
2021/03/30 13:07:17;;;;;;;36.90;15.10;;;20.30;95.40;;;;;;4412103;28;659083;-86
2021/03/30 13:10:05;;;;;;;31.30;14.47;;;19.90;95.70;;;;;;4400839;28;658739;-86
2021/03/30 13:12:52;;;;;;;32.43;15.70;;;19.50;96.50;;;;;;4403938;28;658569;-86
2021/03/30 13:15:39;;;;;;;29.20;15.27;;;19.10;96.30;;;;;;4420737;28;659146;-87
2021/03/30 13:18:28;;;;;;;29.67;15.03;;;18.90;96.50;;;;;;4413167;28;658620;-86
2021/03/30 13:21:15;;;;;;;24.87;14.43;;;18.60;97.60;;;;;;4382369;28;659676;-85
2021/03/30 13:24:05;;;;;;;29.83;14.70;;;18.60;97.60;;;;;;4419134;28;658039;-85
2021/03/30 13:26:52;;;;;;;28.93;14.33;;;18.40;97.60;;;;;;4407144;28;658900;-86
2021/03/30 13:29:40;;;;;;;28.67;15.13;;;18.30;97.90;;;;;;4387756;28;659923;-87
2021/03/30 13:32:30;;;;;;;27.60;14.43;;;18.20;98.30;;;;;;4367589;28;659081;-87
2021/03/30 13:35:18;;;;;;;26.50;14.17;;;18.10;97.80;;;;;;4392496;28;658974;-87
2021/03/30 13:38:05;;;;;;;28.43;14.50;;;18.00;98.30;;;;;;4422060;28;659634;-86
2021/03/30 13:40:53;;;;;;;30.37;14.53;;;17.90;99.50;;;;;;4391670;28;658814;-86
2021/03/30 13:43:40;;;;;;;26.47;14.40;;;17.70;98.70;;;;;;4419543;28;659441;-85
2021/03/30 13:46:27;;;;;;;30.00;14.77;;;17.50;99.20;;;;;;4383832;28;658367;-86
2021/03/30 13:49:16;;;;;;;28.25;15.13;;;17.40;99.60;;;;;;4404678;28;658664;-86
2021/03/30 13:52:05;;;;;;;26.83;14.73;;;17.40;99.40;;;;;;4403512;28;658993;-86
2021/03/30 13:54:52;;;;;;;32.13;14.13;;;17.40;99.90;;;;;;4412916;28;658909;-86
2021/03/30 13:57:39;;;;;;;28.57;14.40;;;17.30;99.90;;;;;;4426992;28;658824;-86
2021/03/30 14:00:26;;;;;;;28.07;14.33;;;17.20;99.90;;;;;;4417210;28;658060;-86
2021/03/30 14:03:14;;;;;;;24.77;13.90;;;17.20;99.90;;;;;;4380782;28;658501;-86
2021/03/30 14:06:01;;;;;;;22.93;13.87;;;17.30;99.90;;;;;;4420952;28;658561;-86
2021/03/30 14:08:49;;;;;;;26.00;12.97;;;17.50;99.90;;;;;;4360110;28;659311;-86
2021/03/30 14:11:41;;;;;;;24.07;12.70;;;17.40;99.90;;;;;;4396443;28;659321;-86